createdAt,value
2019-05-03T00:00:19.416Z,100245.78
2019-05-03T00:03:12.065Z,100251.02
2019-05-03T00:05:53.409Z,100245.81
2019-05-03T00:08:26.259Z,100243.67
2019-05-03T00:10:56.397Z,100248.48
2019-05-03T00:13:32.505Z,100249.41
2019-05-03T00:16:39.122Z,100248.14
2019-05-03T00:19:21.906Z,100245.16
2019-05-03T00:21:56.436Z,100249.11
2019-05-03T00:24:31.931Z,100250.47
2019-05-03T00:27:07.743Z,100254.84
2019-05-03T00:29:43.684Z,100248.78
2019-05-03T00:32:17.262Z,100250.58
2019-05-03T00:34:52.335Z,100249.73
2019-05-03T00:37:32.642Z,100253.67
2019-05-03T00:40:09.622Z,100246.28
2019-05-03T00:42:42.276Z,100248.89
2019-05-03T00:45:12.641Z,100243.68
2019-05-03T00:47:42.842Z,100240.20
2019-05-03T00:50:13.171Z,100245.45
2019-05-03T00:52:46.552Z,100250.27
2019-05-03T00:55:19.243Z,100238.49
2019-05-03T00:57:55.473Z,100246.34
2019-05-03T01:00:25.713Z,100246.32
2019-05-03T01:02:57.210Z,100247.65
2019-05-03T01:05:30.318Z,100247.22
2019-05-03T01:08:02.907Z,100249.41
2019-05-03T01:10:38.384Z,100247.25
2019-05-03T01:13:10.036Z,100243.30
2019-05-03T01:16:12.511Z,100244.64
2019-05-03T01:18:49.332Z,100249.88
2019-05-03T01:21:23.052Z,100253.78
2019-05-03T01:23:53.316Z,100249.02
2019-05-03T01:26:23.438Z,100252.50
2019-05-03T01:28:58.234Z,100252.50
2019-05-03T01:31:31.869Z,100256.41
2019-05-03T01:34:02.733Z,100254.67
2019-05-03T01:36:36.680Z,100260.34
2019-05-03T01:39:12.635Z,100250.80
2019-05-03T01:41:46.002Z,100254.70
2019-05-03T01:44:21.878Z,100263.81
2019-05-03T01:47:16.662Z,100262.09
2019-05-03T01:49:56.095Z,100259.93
2019-05-03T01:52:34.918Z,100256.44
2019-05-03T01:55:05.219Z,100255.59
2019-05-03T01:57:36.754Z,100254.28
2019-05-03T02:00:11.725Z,100249.94
2019-05-03T02:03:09.204Z,100260.34
2019-05-03T02:05:49.098Z,100254.28
2019-05-03T02:08:22.772Z,100252.55
2019-05-03T02:10:52.942Z,100251.70
2019-05-03T02:13:27.406Z,100257.76
2019-05-03T02:15:57.659Z,100261.25
2019-05-03T02:18:31.701Z,100256.03
2019-05-03T02:21:09.098Z,100256.92
2019-05-03T02:23:39.204Z,100257.34
2019-05-03T02:26:11.654Z,100262.97
2019-05-03T02:28:45.311Z,100264.73
2019-05-03T02:31:19.038Z,100268.17
2019-05-03T02:33:54.454Z,100266.03
2019-05-03T02:36:24.557Z,100257.34
2019-05-03T02:38:57.642Z,100256.47
2019-05-03T02:41:27.767Z,100248.20
2019-05-03T02:43:58.125Z,100252.55
2019-05-03T02:46:59.009Z,100262.09
2019-05-03T02:49:49.094Z,100269.48
2019-05-03T02:52:38.004Z,100262.12
2019-05-03T02:55:15.996Z,100256.91
2019-05-03T02:57:56.034Z,100259.49
2019-05-03T03:01:09.876Z,100252.55
2019-05-03T03:03:41.153Z,100260.38
2019-05-03T03:06:17.954Z,100267.75
2019-05-03T03:08:50.319Z,100274.27
2019-05-03T03:11:26.131Z,100275.98
2019-05-03T03:13:59.457Z,100274.26
2019-05-03T03:16:31.194Z,100275.10
2019-05-03T03:19:06.847Z,100281.20
2019-05-03T03:21:41.867Z,100282.49
2019-05-03T03:24:17.528Z,100289.41
2019-05-03T03:26:56.491Z,100287.23
2019-05-03T03:29:41.352Z,100285.50
2019-05-03T03:32:29.553Z,100289.82
2019-05-03T03:35:20.152Z,100283.72
2019-05-03T03:37:55.947Z,100290.67
2019-05-03T03:40:29.150Z,100291.06
2019-05-03T03:43:05.315Z,100298.46
2019-05-03T03:45:41.177Z,100296.71
2019-05-03T03:48:15.585Z,100296.28
2019-05-03T03:50:48.016Z,100304.52
2019-05-03T03:53:26.734Z,100302.33
2019-05-03T03:55:59.507Z,100306.69
2019-05-03T03:58:30.512Z,100314.94
2019-05-03T04:01:06.198Z,100311.44
2019-05-03T04:03:38.510Z,100314.92
2019-05-03T04:06:15.361Z,100318.42
2019-05-03T04:08:45.476Z,100327.06
2019-05-03T04:11:18.542Z,100327.08
2019-05-03T04:13:50.995Z,100329.73
2019-05-03T04:16:36.540Z,100333.67
2019-05-03T04:19:25.279Z,100336.69
2019-05-03T04:21:58.269Z,100332.39
2019-05-03T04:24:35.151Z,100339.77
2019-05-03T04:27:18.520Z,100345.45
2019-05-03T04:29:45.667Z,100351.52
2019-05-03T04:32:19.123Z,100354.98
2019-05-03T04:34:49.259Z,100356.75
2019-05-03T04:37:22.197Z,100357.20
2019-05-03T04:39:56.515Z,100368.48
2019-05-03T04:42:29.928Z,100368.02
2019-05-03T04:45:05.930Z,100374.11
2019-05-03T04:47:38.456Z,100369.36
2019-05-03T04:50:10.431Z,100368.49
2019-05-03T04:52:40.932Z,100372.39
2019-05-03T04:55:11.233Z,100378.03
2019-05-03T04:57:49.227Z,100381.53
2019-05-03T05:00:18.811Z,100377.59
2019-05-03T05:02:55.187Z,100382.38
2019-05-03T05:05:45.260Z,100388.90
2019-05-03T05:08:22.164Z,100389.31
2019-05-03T05:10:52.810Z,100394.08
2019-05-03T05:13:28.216Z,100397.95
2019-05-03T05:16:00.873Z,100399.23
2019-05-03T05:18:38.913Z,100393.09
2019-05-03T05:21:30.229Z,100400.86
2019-05-03T05:24:01.969Z,100400.80
2019-05-03T05:26:51.099Z,100408.58
2019-05-03T05:29:25.359Z,100416.02
2019-05-03T05:31:58.769Z,100411.33
2019-05-03T05:34:29.114Z,100411.98
2019-05-03T05:36:59.251Z,100417.78
2019-05-03T05:39:29.419Z,100420.66
2019-05-03T05:41:59.648Z,100421.41
2019-05-03T05:44:29.753Z,100422.47
2019-05-03T05:47:19.720Z,100420.09
2019-05-03T05:49:56.691Z,100423.22
2019-05-03T05:52:27.287Z,100416.37
2019-05-03T05:55:15.809Z,100428.83
2019-05-03T05:58:18.095Z,100431.75
2019-05-03T06:01:11.935Z,100430.72
2019-05-03T06:03:59.157Z,100431.53
2019-05-03T06:07:18.175Z,100435.66
2019-05-03T06:10:14.059Z,100441.48
2019-05-03T06:13:15.225Z,100438.45
2019-05-03T06:16:16.514Z,100442.36
2019-05-03T06:25:35.425Z,100439.73
2019-05-03T06:28:18.325Z,100441.42
2019-05-03T06:31:04.813Z,100440.61
2019-05-03T06:33:35.012Z,100454.48
2019-05-03T06:36:05.297Z,100446.27
2019-05-03T06:38:35.459Z,100454.03
2019-05-03T06:41:05.795Z,100459.27
2019-05-03T06:43:39.649Z,100453.98
2019-05-03T06:46:07.848Z,100450.37
2019-05-03T06:48:38.027Z,100448.98
2019-05-03T06:51:10.526Z,100451.60
2019-05-03T06:53:41.745Z,100447.98
2019-05-03T06:56:14.827Z,100450.91
2019-05-03T06:58:45.061Z,100449.28
2019-05-03T07:01:25.319Z,100454.07
2019-05-03T07:04:05.008Z,100452.01
2019-05-03T07:06:52.426Z,100453.52
2019-05-03T07:09:35.382Z,100455.56
2019-05-03T07:12:05.852Z,100458.42
2019-05-03T07:14:36.018Z,100465.70
2019-05-03T07:17:06.200Z,100464.78
2019-05-03T07:19:36.399Z,100457.40
2019-05-03T07:22:06.483Z,100456.54
2019-05-03T07:24:40.599Z,100455.52
2019-05-03T07:27:48.041Z,100454.56
2019-05-03T07:30:18.382Z,100459.06
2019-05-03T07:32:55.370Z,100456.09
2019-05-03T07:35:35.227Z,100451.77
2019-05-03T07:38:05.489Z,100450.37
2019-05-03T07:40:35.699Z,100463.58
2019-05-03T07:43:05.878Z,100460.11
2019-05-03T07:45:35.986Z,100465.08
2019-05-03T07:48:06.120Z,100465.55
2019-05-03T07:50:36.340Z,100455.80
2019-05-03T07:53:06.462Z,100461.33
2019-05-03T07:55:57.238Z,100449.84
2019-05-03T07:58:27.358Z,100448.50
2019-05-03T08:01:06.311Z,100453.18
2019-05-03T08:03:30.746Z,100448.83
2019-05-03T08:06:32.120Z,100452.36
2019-05-03T08:09:04.766Z,100449.33
2019-05-03T08:11:35.192Z,100446.48
2019-05-03T08:14:06.015Z,100447.61
2019-05-03T08:16:36.238Z,100448.38
2019-05-03T08:19:06.983Z,100453.33
2019-05-03T08:21:38.663Z,100453.63
2019-05-03T08:24:09.130Z,100446.15
2019-05-03T08:26:39.245Z,100450.69
2019-05-03T08:29:16.229Z,100455.91
2019-05-03T08:32:09.278Z,100463.25
2019-05-03T08:35:04.801Z,100459.78
2019-05-03T08:37:47.862Z,100459.20
2019-05-03T08:40:18.520Z,100459.66
2019-05-03T08:42:55.764Z,100458.26
2019-05-03T08:45:30.099Z,100445.12
2019-05-03T08:48:00.351Z,100450.63
2019-05-03T08:50:30.472Z,100473.81
2019-05-03T08:53:00.564Z,100476.09
2019-05-03T08:55:31.361Z,100470.52
2019-05-03T08:58:05.324Z,100473.53
2019-05-03T09:00:38.325Z,100473.09
2019-05-03T09:03:15.836Z,100473.21
2019-05-03T09:05:57.791Z,100468.59
2019-05-03T09:08:29.531Z,100463.28
2019-05-03T09:11:30.318Z,100462.28
2019-05-03T09:13:55.750Z,100450.94
2019-05-03T09:16:29.765Z,100452.84
2019-05-03T09:19:05.988Z,100457.29
2019-05-03T09:21:36.177Z,100453.81
2019-05-03T09:24:06.600Z,100455.55
2019-05-03T09:26:36.711Z,100458.08
2019-05-03T09:29:09.888Z,100452.21
2019-05-03T09:31:44.662Z,100459.38
2019-05-03T09:34:14.933Z,100456.93
2019-05-03T09:36:51.069Z,100459.69
2019-05-03T09:39:24.516Z,100458.55
2019-05-03T09:41:57.980Z,100449.03
2019-05-03T09:44:28.515Z,100459.66
2019-05-03T09:47:05.799Z,100455.22
2019-05-03T09:49:47.543Z,100459.03
2019-05-03T09:52:27.714Z,100455.48
2019-05-03T09:55:27.010Z,100444.30
2019-05-03T09:57:57.622Z,100453.22
2019-05-03T10:00:41.894Z,100447.25
2019-05-03T10:03:16.001Z,100447.23
2019-05-03T10:06:03.688Z,100446.68
2019-05-03T10:08:38.868Z,100458.20
2019-05-03T10:11:30.274Z,100456.23
2019-05-03T10:14:07.205Z,100462.92
2019-05-03T10:16:45.429Z,100453.89
2019-05-03T10:19:16.262Z,100452.58
2019-05-03T10:21:48.416Z,100450.45
2019-05-03T10:24:18.535Z,100466.84
2019-05-03T10:26:48.639Z,100495.34
2019-05-03T10:29:18.763Z,100490.17
2019-05-03T10:32:20.004Z,100479.30
2019-05-03T10:35:05.501Z,100485.64
2019-05-03T10:37:42.633Z,100480.15
2019-05-03T10:40:13.174Z,100475.52
2019-05-03T10:42:44.515Z,100473.15
2019-05-03T10:45:18.418Z,100473.63
2019-05-03T10:47:53.636Z,100469.27
2019-05-03T10:50:34.833Z,100465.33
2019-05-03T10:53:36.799Z,100471.36
2019-05-03T10:56:23.180Z,100462.98
2019-05-03T10:59:09.399Z,100465.88
2019-05-03T11:01:57.292Z,100470.99
2019-05-03T11:04:43.723Z,100477.72
2019-05-03T11:07:20.993Z,100476.02
2019-05-03T11:09:55.320Z,100464.30
2019-05-03T11:12:35.198Z,100461.57
2019-05-03T11:15:05.783Z,100455.47
2019-05-03T11:17:58.047Z,100459.33
2019-05-03T11:20:36.023Z,100459.82
2019-05-03T11:23:35.905Z,100456.98
2019-05-03T11:26:06.131Z,100444.95
2019-05-03T11:28:41.885Z,100441.10
2019-05-03T11:31:29.487Z,100438.20
2019-05-03T11:34:01.354Z,100452.95
2019-05-03T11:36:45.488Z,100451.81
2019-05-03T11:39:20.565Z,100455.34
2019-05-03T11:42:09.727Z,100449.34
2019-05-03T11:44:39.854Z,100431.83
2019-05-03T11:47:10.051Z,100441.69
2019-05-03T11:49:40.129Z,100432.12
2019-05-03T11:52:10.371Z,100442.69
2019-05-03T11:54:40.478Z,100437.39
2019-05-03T11:57:17.445Z,100447.23
2019-05-03T11:59:47.709Z,100459.61
2019-05-03T12:02:36.761Z,100445.35
2019-05-03T12:05:10.356Z,100442.58
2019-05-03T12:07:40.511Z,100444.13
2019-05-03T12:10:17.104Z,100443.06
2019-05-03T12:12:44.726Z,100445.23
2019-05-03T12:15:15.272Z,100446.28
2019-05-03T12:17:54.142Z,100443.22
2019-05-03T12:20:20.733Z,100441.43
2019-05-03T12:22:51.564Z,100444.97
2019-05-03T12:25:22.795Z,100433.41
2019-05-03T12:27:53.885Z,100433.04
2019-05-03T12:30:27.489Z,100437.63
2019-05-03T12:32:55.856Z,100450.41
2019-05-03T12:35:25.981Z,100445.78
2019-05-03T12:37:56.086Z,100445.05
2019-05-03T12:40:26.159Z,100453.04
2019-05-03T12:42:56.343Z,100450.14
2019-05-03T12:45:26.485Z,100450.47
2019-05-03T12:47:56.606Z,100452.86
2019-05-03T12:50:26.717Z,100450.50
2019-05-03T12:52:56.805Z,100449.45
2019-05-03T12:55:26.906Z,100442.00
2019-05-03T12:57:57.108Z,100453.84
2019-05-03T13:00:58.765Z,100437.28
2019-05-03T13:03:34.730Z,100436.10
2019-05-03T13:06:07.318Z,100436.73
2019-05-03T13:08:42.650Z,100424.53
2019-05-03T13:11:13.068Z,100412.95
2019-05-03T13:13:45.057Z,100430.13
2019-05-03T13:16:18.549Z,100424.90
2019-05-03T13:18:48.652Z,100419.70
2019-05-03T13:21:18.773Z,100433.96
2019-05-03T13:23:48.880Z,100421.92
2019-05-03T13:26:19.037Z,100415.48
2019-05-03T13:28:49.259Z,100422.67
2019-05-03T13:31:19.470Z,100424.16
2019-05-03T13:33:49.567Z,100414.67
2019-05-03T13:36:19.753Z,100403.39
2019-05-03T13:38:55.844Z,100394.09
2019-05-03T13:41:25.059Z,100405.73
2019-05-03T13:43:55.311Z,100402.58
2019-05-03T13:46:25.386Z,100406.58
2019-05-03T13:48:55.586Z,100412.98
2019-05-03T13:51:26.704Z,100422.00
2019-05-03T13:53:56.865Z,100417.59
2019-05-03T13:56:26.949Z,100420.77
2019-05-03T13:58:57.437Z,100410.29
2019-05-03T14:01:27.515Z,100404.89
2019-05-03T14:03:57.661Z,100407.20
2019-05-03T14:06:27.919Z,100402.52
2019-05-03T14:08:58.095Z,100404.43
2019-05-03T14:11:28.207Z,100398.86
2019-05-03T14:13:58.281Z,100396.59
2019-05-03T14:16:28.901Z,100391.86
2019-05-03T14:19:05.297Z,100388.57
2019-05-03T14:21:42.986Z,100398.23
2019-05-03T14:24:15.624Z,100378.78
2019-05-03T14:26:52.620Z,100369.61
2019-05-03T14:29:22.771Z,100367.94
2019-05-03T14:31:54.550Z,100381.46
2019-05-03T14:34:25.728Z,100359.70
2019-05-03T14:36:56.059Z,100362.92
2019-05-03T14:39:26.189Z,100357.13
2019-05-03T14:41:56.279Z,100356.97
2019-05-03T14:44:26.381Z,100359.22
2019-05-03T14:46:59.149Z,100352.05
2019-05-03T14:49:31.392Z,100350.81
2019-05-03T14:52:01.500Z,100346.77
2019-05-03T14:54:34.475Z,100354.92
2019-05-03T14:57:19.251Z,100335.14
2019-05-03T15:00:17.246Z,100344.63
2019-05-03T15:02:51.295Z,100344.62
2019-05-03T15:05:21.408Z,100340.34
2019-05-03T15:07:51.510Z,100334.53
2019-05-03T15:10:21.688Z,100329.24
2019-05-03T15:12:51.776Z,100333.89
2019-05-03T15:15:22.061Z,100333.65
2019-05-03T15:17:52.169Z,100310.09
2019-05-03T15:20:22.250Z,100328.68
2019-05-03T15:22:52.378Z,100335.59
2019-05-03T15:25:22.461Z,100331.41
2019-05-03T15:27:52.534Z,100329.14
2019-05-03T15:30:22.914Z,100327.98
2019-05-03T15:32:57.718Z,100324.93
2019-05-03T15:35:25.881Z,100326.66
2019-05-03T15:37:56.476Z,100327.97
2019-05-03T15:40:26.585Z,100316.05
2019-05-03T15:43:02.608Z,100318.70
2019-05-03T15:45:54.532Z,100321.28
2019-05-03T15:48:27.242Z,100317.24
2019-05-03T15:50:57.374Z,100319.97
2019-05-03T15:53:27.784Z,100316.81
2019-05-03T15:55:58.592Z,100322.70
2019-05-03T15:58:28.658Z,100327.28
2019-05-03T16:00:58.752Z,100308.63
2019-05-03T16:03:32.638Z,100327.86
2019-05-03T16:06:04.792Z,100310.69
2019-05-03T16:08:34.725Z,100318.48
2019-05-03T16:11:05.353Z,100315.55
2019-05-03T16:13:38.210Z,100321.17
2019-05-03T16:16:07.544Z,100323.58
2019-05-03T16:18:38.050Z,100313.11
2019-05-03T16:21:08.280Z,100307.63
2019-05-03T16:23:39.102Z,100302.06
2019-05-03T16:26:09.596Z,100307.10
2019-05-03T16:29:04.805Z,100301.19
2019-05-03T16:31:34.903Z,100295.91
2019-05-03T16:34:05.009Z,100295.84
2019-05-03T16:36:36.865Z,100300.02
2019-05-03T16:39:08.277Z,100298.22
2019-05-03T16:41:38.398Z,100307.89
2019-05-03T16:44:10.615Z,100302.55
2019-05-03T16:46:40.748Z,100290.80
2019-05-03T16:49:10.863Z,100288.84
2019-05-03T16:51:40.938Z,100293.02
2019-05-03T16:54:11.186Z,100285.56
2019-05-03T16:56:41.315Z,100291.05
2019-05-03T16:59:11.440Z,100288.94
2019-05-03T17:01:41.583Z,100287.97
2019-05-03T17:04:27.955Z,100295.81
2019-05-03T17:07:24.656Z,100278.88
2019-05-03T17:09:58.467Z,100282.25
2019-05-03T17:12:29.915Z,100281.70
2019-05-03T17:15:00.190Z,100314.30
2019-05-03T17:17:30.260Z,100304.61
2019-05-03T17:20:00.368Z,100309.11
2019-05-03T17:22:30.485Z,100344.52
2019-05-03T17:25:00.602Z,100330.20
2019-05-03T17:27:30.714Z,100333.06
2019-05-03T17:30:00.904Z,100327.54
2019-05-03T17:32:31.007Z,100319.81
2019-05-03T17:35:01.142Z,100318.67
2019-05-03T17:37:31.271Z,100305.34
2019-05-03T17:40:38.745Z,100305.40
2019-05-03T17:43:14.700Z,100300.09
2019-05-03T17:45:48.031Z,100289.66
2019-05-03T17:48:18.107Z,100283.50
2019-05-03T17:50:48.197Z,100283.08
2019-05-03T17:53:54.622Z,100284.77
2019-05-03T17:56:29.595Z,100276.89
2019-05-03T17:59:04.576Z,100276.06
2019-05-03T18:01:55.418Z,100277.02
2019-05-03T18:04:44.592Z,100287.36
2019-05-03T18:07:30.852Z,100282.84
2019-05-03T18:10:01.162Z,100284.61
2019-05-03T18:12:31.280Z,100272.47
2019-05-03T18:15:01.340Z,100268.40
2019-05-03T18:17:31.531Z,100268.89
2019-05-03T18:20:01.633Z,100263.30
2019-05-03T18:22:31.854Z,100261.20
2019-05-03T18:25:01.957Z,100262.22
2019-05-03T18:27:32.107Z,100260.16
2019-05-03T18:30:02.212Z,100263.36
2019-05-03T18:32:34.352Z,100257.33
2019-05-03T18:35:04.907Z,100267.77
2019-05-03T18:37:35.142Z,100281.69
2019-05-03T18:40:05.878Z,100301.56
2019-05-03T18:42:41.788Z,100299.13
2019-05-03T18:45:23.794Z,100325.45
2019-05-03T18:47:54.449Z,100323.56
2019-05-03T18:50:24.754Z,100320.38
2019-05-03T18:52:55.390Z,100318.33
2019-05-03T18:55:25.624Z,100326.25
2019-05-03T18:57:57.548Z,100328.48
2019-05-03T19:00:28.596Z,100334.59
2019-05-03T19:02:58.852Z,100330.28
2019-05-03T19:05:31.062Z,100337.20
2019-05-03T19:08:27.384Z,100334.63
2019-05-03T19:11:04.447Z,100334.66
2019-05-03T19:13:41.582Z,100321.61
2019-05-03T19:16:39.999Z,100322.57
2019-05-03T19:19:10.736Z,100307.41
2019-05-03T19:21:41.009Z,100305.70
2019-05-03T19:24:11.357Z,100302.23
2019-05-03T19:26:45.035Z,100298.77
2019-05-03T19:29:17.748Z,100293.64
2019-05-03T19:31:48.120Z,100293.17
2019-05-03T19:34:18.377Z,100293.61
2019-05-03T19:36:48.744Z,100284.50
2019-05-03T19:39:19.031Z,100287.55
2019-05-03T19:41:49.377Z,100284.07
2019-05-03T19:44:19.677Z,100294.00
2019-05-03T19:46:49.846Z,100294.00
2019-05-03T19:49:20.105Z,100307.87
2019-05-03T19:51:54.531Z,100318.39
2019-05-03T19:54:24.802Z,100306.20
2019-05-03T19:56:55.672Z,100291.83
2019-05-03T19:59:44.337Z,100274.47
2019-05-03T20:02:24.361Z,100279.23
2019-05-03T20:05:15.016Z,100276.66
2019-05-03T20:08:05.192Z,100280.13
2019-05-03T20:10:35.408Z,100285.83
2019-05-03T20:13:05.675Z,100285.77
2019-05-03T20:15:35.844Z,100285.31
2019-05-03T20:18:06.156Z,100287.06
2019-05-03T20:20:36.435Z,100275.73
2019-05-03T20:23:06.810Z,100265.78
2019-05-03T20:25:37.024Z,100275.73
2019-05-03T20:28:07.238Z,100263.64
2019-05-03T20:30:37.505Z,100254.94
2019-05-03T20:33:07.843Z,100254.92
2019-05-03T20:35:38.905Z,100252.34
2019-05-03T20:38:09.043Z,100249.75
2019-05-03T20:40:39.201Z,100253.64
2019-05-03T20:43:27.178Z,100250.59
2019-05-03T20:46:05.084Z,100249.33
2019-05-03T20:48:36.013Z,100255.45
2019-05-03T20:51:06.130Z,100257.59
2019-05-03T20:53:36.251Z,100251.10
2019-05-03T20:56:06.333Z,100249.80
2019-05-03T20:58:36.475Z,100246.28
2019-05-03T21:01:06.607Z,100247.17
2019-05-03T21:03:36.730Z,100248.02
2019-05-03T21:06:06.893Z,100251.48
2019-05-03T21:08:49.597Z,100254.03
2019-05-03T21:11:08.839Z,100258.34
2019-05-03T21:13:42.309Z,100257.92
2019-05-03T21:16:29.794Z,100253.55
2019-05-03T21:19:15.866Z,100249.59
2019-05-03T21:21:48.704Z,100253.52
2019-05-03T21:24:28.065Z,100250.92
2019-05-03T21:26:58.188Z,100237.05
2019-05-03T21:29:28.308Z,100243.64
2019-05-03T21:31:58.408Z,100242.41
2019-05-03T21:34:28.485Z,100243.74
2019-05-03T21:36:58.615Z,100238.55
2019-05-03T21:39:28.700Z,100234.67
2019-05-03T21:41:58.781Z,100230.81
2019-05-03T21:44:32.729Z,100236.04
2019-05-03T21:47:27.650Z,100231.67
2019-05-03T21:49:58.698Z,100229.09
2019-05-03T21:52:28.915Z,100239.53
2019-05-03T21:54:58.996Z,100235.18
2019-05-03T21:57:29.121Z,100234.33
2019-05-03T21:59:59.201Z,100234.78
2019-05-03T22:02:29.272Z,100223.05
2019-05-03T22:04:59.393Z,100223.04
2019-05-03T22:07:29.467Z,100225.22
2019-05-03T22:09:59.910Z,100223.91
2019-05-03T22:12:29.955Z,100226.52
2019-05-03T22:15:16.350Z,100225.20
2019-05-03T22:18:02.368Z,100216.11
2019-05-03T22:20:41.130Z,100216.98
2019-05-03T22:23:38.057Z,100216.12
2019-05-03T22:26:08.329Z,100213.52
2019-05-03T22:28:38.423Z,100211.78
2019-05-03T22:31:08.616Z,100217.42
2019-05-03T22:33:38.717Z,100221.74
2019-05-03T22:36:10.897Z,100219.16
2019-05-03T22:38:44.893Z,100215.66
2019-05-03T22:41:15.118Z,100209.16
2019-05-03T22:43:45.662Z,100210.90
2019-05-03T22:46:15.840Z,100204.81
2019-05-03T22:48:46.634Z,100199.61
2019-05-03T22:51:16.878Z,100205.27
2019-05-03T22:53:51.423Z,100200.48
2019-05-03T22:56:24.751Z,100199.62
2019-05-03T22:58:54.890Z,100203.95
2019-05-03T23:01:25.563Z,100197.88
2019-05-03T23:03:55.851Z,100197.45
2019-05-03T23:06:26.172Z,100207.44
2019-05-03T23:08:56.293Z,100197.89
2019-05-03T23:11:26.366Z,100193.98
2019-05-03T23:14:04.599Z,100197.89
2019-05-03T23:16:35.710Z,100193.55
2019-05-03T23:19:25.011Z,100189.63
2019-05-03T23:22:20.894Z,100185.32
2019-05-03T23:24:51.008Z,100183.13
2019-05-03T23:27:21.182Z,100178.80
2019-05-03T23:29:51.299Z,100187.03
2019-05-03T23:32:26.886Z,100197.02
2019-05-03T23:34:56.962Z,100203.53
2019-05-03T23:37:27.110Z,100180.49
2019-05-03T23:39:57.151Z,100167.92
2019-05-03T23:42:27.246Z,100162.72
2019-05-03T23:44:57.310Z,100169.23
2019-05-03T23:47:45.044Z,100164.89
2019-05-03T23:50:20.152Z,100167.09
2019-05-03T23:52:50.248Z,100159.72
2019-05-03T23:55:31.654Z,100156.69
2019-05-03T23:58:01.746Z,100155.80
